Time;durP1;ratioP1;P1;durP2;ratioP2;P2;SDS_P1;SDS_P2;PMS_P1;PMS_P2;Temp;Humidity;BMP_temperature;BMP_pressure;BME280_temperature;BME280_humidity;BME280_pressure;Samples;Min_cycle;Max_cycle;Signal;HPM_P1;HPM_P2
2022/09/25 00:01:12;;;;;;;10.87;10.00;;;13.00;99.90;;;;;;5113071;28;20196;-49
2022/09/25 00:03:40;;;;;;;10.07;9.13;;;13.00;99.90;;;;;;5109662;28;20272;-49
2022/09/25 00:06:09;;;;;;;11.13;10.20;;;13.00;99.90;;;;;;5112551;28;20211;-49
2022/09/25 00:08:37;;;;;;;11.73;10.73;;;12.90;99.90;;;;;;5113148;28;20220;-49
2022/09/25 00:11:07;;;;;;;12.37;11.07;;;12.90;99.90;;;;;;5110069;28;20707;-48
2022/09/25 00:13:37;;;;;;;13.70;12.30;;;12.90;99.90;;;;;;5111357;28;20623;-49
2022/09/25 00:16:04;;;;;;;18.80;13.77;;;13.00;99.90;;;;;;5092838;28;20304;-49
2022/09/25 00:21:18;;;;;;;22.30;18.47;;;12.90;99.90;;;;;;5103238;28;20205;-48
2022/09/25 00:23:46;;;;;;;40.63;29.77;;;12.90;99.90;;;;;;5104024;28;20219;-49
2022/09/25 00:26:16;;;;;;;39.97;28.13;;;12.80;99.90;;;;;;5101212;27;20287;-48
2022/09/25 00:28:48;;;;;;;25.98;22.77;;;12.80;99.90;;;;;;5097283;27;20443;-49
2022/09/25 00:31:23;;;;;;;19.33;17.07;;;12.80;99.90;;;;;;5105928;28;20619;-49
2022/09/25 00:33:50;;;;;;;19.33;14.73;;;12.70;99.90;;;;;;5100459;28;20217;-49
2022/09/25 00:36:17;;;;;;;15.27;13.77;;;12.70;99.90;;;;;;5106924;28;20202;-49
2022/09/25 00:38:46;;;;;;;13.57;12.27;;;12.70;99.90;;;;;;5110944;28;20233;-50
2022/09/25 00:41:14;;;;;;;13.30;12.10;;;12.60;99.90;;;;;;5104243;28;20204;-49
2022/09/25 00:43:43;;;;;;;14.63;13.10;;;12.60;99.90;;;;;;5091754;28;20207;-49
2022/09/25 00:46:19;;;;;;;13.20;11.47;;;12.60;99.90;;;;;;5105818;28;20200;-50
2022/09/25 00:48:50;;;;;;;9.47;8.67;;;12.60;99.90;;;;;;5105617;28;20219;-49
2022/09/25 00:51:20;;;;;;;11.63;10.63;;;12.60;99.90;;;;;;5107787;28;20253;-50
2022/09/25 00:53:48;;;;;;;11.87;10.83;;;12.50;99.90;;;;;;5111609;28;20199;-49
2022/09/25 00:56:16;;;;;;;9.90;9.00;;;12.50;99.90;;;;;;5109385;28;20203;-50
2022/09/25 00:58:44;;;;;;;10.67;9.60;;;12.40;99.90;;;;;;5110567;28;20570;-49
2022/09/25 01:01:12;;;;;;;10.73;9.73;;;12.30;99.90;;;;;;5112429;28;20199;-49
2022/09/25 01:03:45;;;;;;;8.80;8.10;;;12.30;99.90;;;;;;5105698;28;20249;-49
2022/09/25 01:06:14;;;;;;;9.50;8.67;;;12.30;99.90;;;;;;5112045;28;20196;-50
2022/09/25 01:08:42;;;;;;;8.37;7.77;;;12.30;99.90;;;;;;5110072;28;20223;-49
2022/09/25 01:11:09;;;;;;;10.17;9.27;;;12.30;99.90;;;;;;5105947;28;20207;-50
2022/09/25 01:13:37;;;;;;;10.50;9.63;;;12.30;99.90;;;;;;5111844;28;20206;-50
2022/09/25 01:16:11;;;;;;;10.47;9.50;;;12.30;99.90;;;;;;5112010;28;20211;-50
2022/09/25 01:18:53;;;;;;;9.60;8.80;;;12.20;99.90;;;;;;5107246;28;20227;-49
2022/09/25 01:21:31;;;;;;;10.80;9.90;;;12.30;99.90;;;;;;5105915;28;20192;-50
2022/09/25 01:24:42;;;;;;;10.70;9.90;;;12.20;99.90;;;;;;5111984;28;20191;-48
2022/09/25 01:27:36;;;;;;;13.10;11.90;;;12.30;99.90;;;;;;5106001;28;20202;-49
2022/09/25 01:30:08;;;;;;;13.03;11.83;;;12.30;99.90;;;;;;5093607;28;20210;-49
2022/09/25 01:32:45;;;;;;;11.60;10.50;;;12.30;99.90;;;;;;5101687;28;20200;-49
2022/09/25 01:35:18;;;;;;;11.60;10.60;;;12.30;99.90;;;;;;5100786;28;20199;-49
2022/09/25 01:37:50;;;;;;;11.57;10.47;;;12.30;99.90;;;;;;5109337;28;20206;-49
2022/09/25 01:40:25;;;;;;;11.83;10.80;;;12.30;99.90;;;;;;5112014;28;20232;-49
2022/09/25 01:42:57;;;;;;;12.67;11.47;;;12.30;99.90;;;;;;5109544;28;20203;-49
2022/09/25 01:45:30;;;;;;;12.53;11.43;;;12.30;99.90;;;;;;5111813;28;20206;-49
2022/09/25 01:48:00;;;;;;;12.47;11.33;;;12.20;99.90;;;;;;5111922;28;20242;-49
2022/09/25 01:50:30;;;;;;;10.70;9.80;;;12.20;99.90;;;;;;5107830;28;20196;-49
2022/09/25 01:53:01;;;;;;;13.03;11.90;;;12.30;99.90;;;;;;5104734;28;20192;-49
2022/09/25 01:55:32;;;;;;;13.27;11.97;;;12.30;99.90;;;;;;5101087;28;20199;-49
2022/09/25 01:58:04;;;;;;;13.60;12.30;;;12.30;99.90;;;;;;5109713;28;20223;-49
2022/09/25 02:00:36;;;;;;;12.27;11.17;;;12.30;99.90;;;;;;5111532;28;20268;-50
2022/09/25 02:03:10;;;;;;;10.60;9.70;;;12.30;99.90;;;;;;5111274;28;20680;-50
2022/09/25 02:05:42;;;;;;;13.37;12.07;;;12.30;99.90;;;;;;5110079;28;20200;-49
2022/09/25 02:08:14;;;;;;;11.13;9.97;;;12.30;99.90;;;;;;5095128;28;20212;-50
2022/09/25 02:10:46;;;;;;;11.57;10.47;;;12.30;99.90;;;;;;5111436;28;20202;-49
2022/09/25 02:13:16;;;;;;;11.10;10.20;;;12.30;99.90;;;;;;5111215;28;20285;-49
2022/09/25 02:15:49;;;;;;;10.10;9.30;;;12.30;99.90;;;;;;5111530;28;20202;-50
2022/09/25 02:21:14;;;;;;;11.70;10.73;;;12.40;99.90;;;;;;5099947;28;20299;-49
2022/09/25 02:23:50;;;;;;;12.27;11.07;;;12.30;99.90;;;;;;5108483;28;20815;-49
2022/09/25 02:26:24;;;;;;;11.20;10.20;;;12.40;99.90;;;;;;5113680;28;20210;-49
2022/09/25 02:28:53;;;;;;;9.60;8.90;;;12.40;99.90;;;;;;5114942;28;20218;-48
2022/09/25 02:31:27;;;;;;;12.73;11.43;;;12.40;99.90;;;;;;5115311;28;20203;-48
2022/09/25 02:33:55;;;;;;;12.10;11.17;;;12.40;99.90;;;;;;5109155;28;20532;-49
2022/09/25 02:36:23;;;;;;;11.23;10.13;;;12.40;99.90;;;;;;5108084;28;20203;-48
2022/09/25 02:38:52;;;;;;;11.03;10.17;;;12.40;99.90;;;;;;5114924;28;20212;-48
2022/09/25 02:41:34;;;;;;;11.10;10.10;;;12.40;99.90;;;;;;5115013;28;20218;-48
2022/09/25 02:44:17;;;;;;;9.73;8.93;;;12.30;99.90;;;;;;5114746;28;20208;-48
2022/09/25 02:46:58;;;;;;;10.37;9.43;;;12.40;99.90;;;;;;5114671;28;20202;-49
2022/09/25 02:49:32;;;;;;;9.30;8.60;;;12.40;99.90;;;;;;5109395;28;20218;-48
2022/09/25 02:52:06;;;;;;;7.40;6.90;;;12.40;99.90;;;;;;5114256;28;20199;-48
2022/09/25 02:54:38;;;;;;;7.90;7.27;;;12.30;99.90;;;;;;5114573;28;20248;-48
2022/09/25 02:57:11;;;;;;;6.30;5.80;;;12.30;99.90;;;;;;5112464;28;20261;-49
2022/09/25 02:59:45;;;;;;;6.50;6.07;;;12.30;99.90;;;;;;5114696;28;20238;-49
2022/09/25 03:02:16;;;;;;;7.63;6.93;;;12.30;99.90;;;;;;5108778;28;20210;-49
2022/09/25 03:04:45;;;;;;;7.97;7.27;;;12.20;99.90;;;;;;5110284;28;20201;-48
2022/09/25 03:07:13;;;;;;;5.97;5.57;;;12.20;99.90;;;;;;5107484;28;20196;-48
2022/09/25 03:09:43;;;;;;;6.30;5.80;;;12.20;99.90;;;;;;5111264;28;20224;-48
2022/09/25 03:12:10;;;;;;;6.57;6.17;;;12.20;99.90;;;;;;5110132;28;20725;-49
2022/09/25 03:14:37;;;;;;;5.40;5.10;;;12.10;99.90;;;;;;5105931;28;20199;-49
2022/09/25 03:17:07;;;;;;;5.73;5.40;;;12.20;99.90;;;;;;5100138;28;20199;-49
2022/09/25 03:19:35;;;;;;;6.70;6.10;;;12.10;99.90;;;;;;5100969;28;20223;-49
2022/09/25 03:22:03;;;;;;;6.63;6.03;;;12.10;99.90;;;;;;5106185;28;20726;-50
2022/09/25 03:24:30;;;;;;;7.90;7.30;;;12.10;99.90;;;;;;5109591;28;20206;-49
2022/09/25 03:26:57;;;;;;;7.50;6.83;;;12.10;99.90;;;;;;5112443;28;20200;-49
2022/09/25 03:29:24;;;;;;;7.03;6.40;;;12.10;99.90;;;;;;5104413;28;20227;-50
2022/09/25 03:31:54;;;;;;;7.13;6.63;;;12.10;99.90;;;;;;5110589;28;20206;-49
2022/09/25 03:34:22;;;;;;;7.33;6.70;;;12.10;99.90;;;;;;5112262;28;20687;-51
2022/09/25 03:36:50;;;;;;;7.47;6.73;;;12.10;99.90;;;;;;5097601;28;20224;-50
2022/09/25 03:39:17;;;;;;;7.80;7.10;;;12.00;99.90;;;;;;5113435;28;20716;-49
2022/09/25 03:41:45;;;;;;;7.03;6.53;;;12.00;99.90;;;;;;5113490;28;20204;-50
2022/09/25 03:44:12;;;;;;;7.63;7.00;;;12.00;99.90;;;;;;5099154;28;20202;-49
2022/09/25 03:46:39;;;;;;;7.50;6.90;;;12.00;99.90;;;;;;5114372;27;20199;-50
2022/09/25 03:49:09;;;;;;;10.63;9.27;;;12.00;99.90;;;;;;5113451;28;20223;-51
2022/09/25 03:51:37;;;;;;;8.73;7.93;;;11.90;99.90;;;;;;5111415;28;20203;-50
2022/09/25 03:54:06;;;;;;;10.53;8.83;;;11.90;99.90;;;;;;5092570;28;20592;-49
2022/09/25 03:56:33;;;;;;;9.50;8.70;;;12.00;99.90;;;;;;5091778;28;20201;-48
2022/09/25 03:59:00;;;;;;;8.57;7.73;;;12.00;99.90;;;;;;5107738;28;20214;-49
2022/09/25 04:01:28;;;;;;;9.13;8.43;;;12.00;99.90;;;;;;5112379;28;20697;-49
2022/09/25 04:03:56;;;;;;;10.60;9.60;;;12.00;99.90;;;;;;5111930;28;20199;-50
2022/09/25 04:06:25;;;;;;;10.87;9.97;;;12.00;99.90;;;;;;5104835;28;20290;-50
2022/09/25 04:08:53;;;;;;;10.57;9.57;;;12.10;99.90;;;;;;5108746;28;20227;-49
2022/09/25 04:11:23;;;;;;;11.47;10.37;;;12.10;99.90;;;;;;5098352;28;20195;-49
2022/09/25 04:13:52;;;;;;;9.93;9.07;;;12.10;99.90;;;;;;5112826;28;20202;-49
2022/09/25 04:16:20;;;;;;;10.57;9.63;;;12.10;99.90;;;;;;5108008;28;20196;-50
2022/09/25 04:18:48;;;;;;;8.90;8.03;;;12.00;99.90;;;;;;5112487;28;20280;-49
2022/09/25 04:21:16;;;;;;;11.13;10.03;;;12.00;99.90;;;;;;5106079;28;20223;-49
2022/09/25 04:24:47;;;;;;;10.40;9.47;;;12.10;99.90;;;;;;5111344;28;20199;-50
2022/09/25 04:26:33;;;;;;;11.03;9.93;;;12.10;99.90;;;;;;5110585;28;20283;-49
2022/09/25 04:29:00;;;;;;;17.40;15.00;;;12.10;99.90;;;;;;5112444;28;20227;-50
2022/09/25 04:31:28;;;;;;;15.77;14.27;;;12.10;99.90;;;;;;5112942;28;20196;-49
2022/09/25 04:33:54;;;;;;;16.07;14.47;;;12.10;99.90;;;;;;5109731;28;20198;-49
2022/09/25 04:36:22;;;;;;;15.97;14.40;;;12.10;99.90;;;;;;5112665;28;20614;-49
2022/09/25 04:38:49;;;;;;;12.87;11.67;;;12.10;99.90;;;;;;5110443;28;20227;-50
2022/09/25 04:41:18;;;;;;;13.33;11.30;;;12.10;99.90;;;;;;5105201;28;20227;-49
2022/09/25 04:43:47;;;;;;;12.13;10.87;;;12.10;99.90;;;;;;5101147;28;20651;-49
2022/09/25 04:46:16;;;;;;;12.83;11.63;;;12.10;99.90;;;;;;5111632;28;20569;-49
2022/09/25 04:48:45;;;;;;;14.73;13.23;;;12.10;99.90;;;;;;5108306;28;20668;-50
2022/09/25 04:51:12;;;;;;;12.57;11.27;;;12.10;99.90;;;;;;5109450;28;20268;-50
2022/09/25 04:53:40;;;;;;;14.40;12.90;;;12.10;99.90;;;;;;5106994;28;20200;-50
2022/09/25 04:56:10;;;;;;;13.43;12.23;;;12.10;99.90;;;;;;5108738;28;20781;-48
2022/09/25 04:58:38;;;;;;;12.47;11.30;;;12.10;99.90;;;;;;5112295;28;20306;-50
2022/09/25 05:01:09;;;;;;;11.13;10.17;;;12.10;99.90;;;;;;5097135;28;20649;-49
2022/09/25 05:03:36;;;;;;;11.87;10.77;;;12.10;99.90;;;;;;5112156;28;20195;-49
2022/09/25 05:06:04;;;;;;;11.00;10.10;;;12.10;99.90;;;;;;5112262;28;20199;-49
2022/09/25 05:08:31;;;;;;;11.63;10.53;;;12.10;99.90;;;;;;5112161;28;20218;-48
2022/09/25 05:10:58;;;;;;;12.73;11.50;;;12.00;99.90;;;;;;5109688;28;20198;-49
2022/09/25 05:13:29;;;;;;;12.03;10.87;;;12.00;99.90;;;;;;5107107;28;20207;-49
2022/09/25 05:15:56;;;;;;;12.50;11.30;;;12.00;99.90;;;;;;5103397;28;20208;-49
2022/09/25 05:18:29;;;;;;;12.43;11.23;;;12.10;99.90;;;;;;5110308;28;20215;-50
2022/09/25 05:20:56;;;;;;;12.67;11.47;;;12.00;99.90;;;;;;5111947;28;20229;-49
2022/09/25 05:23:25;;;;;;;12.67;11.20;;;12.00;99.90;;;;;;5111981;28;20198;-49
2022/09/25 05:25:52;;;;;;;13.03;11.53;;;12.10;99.90;;;;;;5112196;28;20210;-50
2022/09/25 05:28:19;;;;;;;10.57;9.67;;;12.10;99.90;;;;;;5112094;28;20222;-49
2022/09/25 05:30:47;;;;;;;12.03;10.93;;;12.10;99.90;;;;;;5104832;28;20204;-49
2022/09/25 05:33:14;;;;;;;11.30;9.97;;;12.10;99.90;;;;;;5111800;28;20203;-50
2022/09/25 05:35:43;;;;;;;10.90;9.97;;;12.10;99.90;;;;;;5094440;28;20287;-50
2022/09/25 05:38:11;;;;;;;12.60;11.30;;;12.00;99.90;;;;;;5112011;28;20230;-50
2022/09/25 05:40:38;;;;;;;13.77;12.33;;;12.00;99.90;;;;;;5112019;28;20224;-49
2022/09/25 05:43:06;;;;;;;12.53;11.33;;;12.00;99.90;;;;;;5107620;28;20583;-50
2022/09/25 05:45:34;;;;;;;11.47;10.37;;;12.00;99.90;;;;;;5107829;28;20192;-49
2022/09/25 05:48:03;;;;;;;14.20;12.07;;;12.10;99.90;;;;;;5095366;28;20219;-49
2022/09/25 05:50:32;;;;;;;12.63;11.40;;;12.10;99.90;;;;;;5105294;28;20195;-49
2022/09/25 05:53:01;;;;;;;12.33;11.13;;;12.10;99.90;;;;;;5092654;28;20223;-49
2022/09/25 05:55:29;;;;;;;11.93;10.83;;;12.10;99.90;;;;;;5109944;28;20198;-49
2022/09/25 05:58:01;;;;;;;15.43;12.57;;;12.10;99.90;;;;;;5111382;28;20215;-49
2022/09/25 06:00:31;;;;;;;16.90;12.77;;;12.20;99.90;;;;;;5107360;28;20218;-49
2022/09/25 06:03:00;;;;;;;14.87;13.23;;;12.30;99.90;;;;;;5115612;28;20199;-50
2022/09/25 06:05:27;;;;;;;20.97;18.37;;;12.40;99.90;;;;;;5106432;27;20676;-50
2022/09/25 06:07:54;;;;;;;15.77;14.20;;;12.50;99.90;;;;;;5109706;28;20199;-49
2022/09/25 06:10:24;;;;;;;13.67;12.50;;;12.60;99.90;;;;;;5113277;28;20192;-50
2022/09/25 06:12:54;;;;;;;13.73;12.63;;;12.70;99.90;;;;;;5096369;28;20203;-50
2022/09/25 06:15:23;;;;;;;13.23;12.03;;;12.90;99.90;;;;;;5115040;27;20192;-50
2022/09/25 06:17:50;;;;;;;17.33;15.63;;;13.00;99.90;;;;;;5113741;28;20262;-50
2022/09/25 06:20:17;;;;;;;26.70;20.33;;;13.10;99.90;;;;;;5109663;28;20798;-49
2022/09/25 06:22:44;;;;;;;18.90;16.90;;;13.20;99.90;;;;;;5106779;28;20225;-49
2022/09/25 06:25:14;;;;;;;16.23;14.70;;;13.30;99.90;;;;;;5110591;28;20199;-49
2022/09/25 06:27:42;;;;;;;18.17;14.17;;;13.30;99.90;;;;;;5112143;28;20192;-53
2022/09/25 06:30:10;;;;;;;13.00;11.87;;;13.30;99.90;;;;;;5115206;28;20199;-50
2022/09/25 06:32:38;;;;;;;12.20;10.87;;;13.40;99.90;;;;;;5114990;28;20214;-49
2022/09/25 06:35:05;;;;;;;10.13;9.23;;;13.40;99.90;;;;;;5110431;28;20661;-49
2022/09/25 06:37:33;;;;;;;11.30;10.23;;;13.40;99.90;;;;;;5110329;28;20200;-50
2022/09/25 06:40:00;;;;;;;11.30;10.17;;;13.40;99.90;;;;;;5108025;28;20226;-49
2022/09/25 06:42:27;;;;;;;10.63;9.53;;;13.40;99.90;;;;;;5110472;28;20228;-50
2022/09/25 06:44:56;;;;;;;9.90;8.90;;;13.40;99.90;;;;;;5112539;28;20657;-49
2022/09/25 06:47:23;;;;;;;9.63;8.73;;;13.40;99.90;;;;;;5111389;28;20201;-49
2022/09/25 06:49:50;;;;;;;10.27;9.30;;;13.40;99.90;;;;;;5102245;27;20227;-49
2022/09/25 06:52:17;;;;;;;9.90;9.10;;;13.40;99.90;;;;;;5109037;28;20188;-48
2022/09/25 06:54:44;;;;;;;8.00;7.40;;;13.50;99.90;;;;;;5110642;28;20539;-49
2022/09/25 06:57:12;;;;;;;7.47;6.87;;;13.70;99.90;;;;;;5114393;28;20660;-49
2022/09/25 06:59:39;;;;;;;9.30;8.57;;;13.70;99.90;;;;;;5104107;28;20220;-49
2022/09/25 07:04:52;;;;;;;11.17;10.17;;;13.80;99.90;;;;;;5080514;28;20196;-49
2022/09/25 07:07:19;;;;;;;11.20;10.30;;;14.00;99.90;;;;;;5103453;28;20196;-49
2022/09/25 07:09:48;;;;;;;8.23;7.63;;;14.10;99.90;;;;;;5111971;28;20713;-49
2022/09/25 07:12:16;;;;;;;8.27;7.67;;;14.20;99.90;;;;;;5114108;28;20257;-49
2022/09/25 07:14:45;;;;;;;7.90;7.43;;;14.30;99.90;;;;;;5112461;28;20662;-50
2022/09/25 07:17:14;;;;;;;8.33;7.53;;;14.40;99.90;;;;;;5108533;28;20200;-48
2022/09/25 07:19:41;;;;;;;9.40;8.20;;;14.40;99.90;;;;;;5110942;28;20226;-49
2022/09/25 07:22:11;;;;;;;8.67;7.87;;;14.50;99.90;;;;;;5098095;27;20231;-50
2022/09/25 07:24:38;;;;;;;8.90;8.13;;;14.60;99.90;;;;;;5096320;28;20301;-50
2022/09/25 07:27:05;;;;;;;10.20;9.30;;;14.90;99.90;;;;;;5106314;28;20253;-50
2022/09/25 07:29:34;;;;;;;8.40;7.30;;;15.10;99.90;;;;;;5113838;28;20258;-50
2022/09/25 07:32:01;;;;;;;8.07;7.30;;;15.20;99.90;;;;;;5096666;28;20321;-50
2022/09/25 07:34:30;;;;;;;6.67;6.13;;;15.30;99.90;;;;;;5111810;28;20202;-50
2022/09/25 07:36:57;;;;;;;6.43;6.03;;;15.20;99.90;;;;;;5113844;28;20684;-50
2022/09/25 07:39:24;;;;;;;6.17;5.70;;;15.30;99.90;;;;;;5110344;28;20219;-50
2022/09/25 07:41:54;;;;;;;6.47;6.07;;;15.30;99.90;;;;;;5113541;28;20592;-50
2022/09/25 07:44:21;;;;;;;6.13;5.83;;;15.30;99.90;;;;;;5113403;28;20585;-50
2022/09/25 07:46:48;;;;;;;7.07;6.57;;;15.30;99.90;;;;;;5113657;28;20631;-50
2022/09/25 07:49:15;;;;;;;6.73;6.33;;;15.50;99.90;;;;;;5101873;28;20211;-50
2022/09/25 07:51:44;;;;;;;6.40;5.90;;;15.50;99.90;;;;;;5111989;28;20200;-49
2022/09/25 07:54:11;;;;;;;6.77;6.23;;;15.50;99.90;;;;;;5113297;28;20203;-50
2022/09/25 07:56:38;;;;;;;6.33;5.87;;;15.80;99.90;;;;;;5113286;28;20295;-50
2022/09/25 07:59:05;;;;;;;7.20;6.70;;;16.20;99.90;;;;;;5107602;28;20219;-50
2022/09/25 08:01:32;;;;;;;7.43;6.90;;;16.40;99.90;;;;;;5113046;28;20584;-50
2022/09/25 08:03:59;;;;;;;7.80;7.30;;;16.70;99.90;;;;;;5108423;28;20291;-50
2022/09/25 08:06:27;;;;;;;7.83;7.23;;;16.80;99.90;;;;;;5110141;28;20580;-50
2022/09/25 08:08:55;;;;;;;9.47;8.77;;;16.70;99.90;;;;;;5112935;28;20224;-50
2022/09/25 08:11:23;;;;;;;9.50;8.80;;;16.80;99.90;;;;;;5113327;28;20203;-51
2022/09/25 08:13:50;;;;;;;10.03;9.23;;;16.70;99.90;;;;;;5110428;28;20299;-50
2022/09/25 08:16:20;;;;;;;11.23;10.23;;;16.70;99.90;;;;;;5106390;28;20196;-50
2022/09/25 08:18:48;;;;;;;10.97;9.60;;;17.00;99.90;;;;;;5112161;28;20777;-50
2022/09/25 08:21:17;;;;;;;10.60;9.80;;;17.20;99.90;;;;;;5107138;28;20223;-50
2022/09/25 08:23:48;;;;;;;12.10;11.10;;;17.40;99.90;;;;;;5109957;28;20278;-50
2022/09/25 08:26:16;;;;;;;13.27;12.07;;;17.40;99.90;;;;;;5106803;28;20196;-50
2022/09/25 08:28:44;;;;;;;15.70;14.27;;;17.10;99.90;;;;;;5106961;28;20216;-50
2022/09/25 08:31:13;;;;;;;16.00;14.40;;;16.80;99.90;;;;;;5113201;28;20629;-48
2022/09/25 08:33:43;;;;;;;17.17;15.37;;;16.60;99.90;;;;;;5117358;28;20203;-50
2022/09/25 08:36:10;;;;;;;24.13;15.87;;;16.00;99.90;;;;;;5126142;28;20185;-49
2022/09/25 08:38:37;;;;;;;15.97;14.47;;;15.70;99.90;;;;;;5124626;28;20219;-53
2022/09/25 08:41:08;;;;;;;17.43;15.73;;;15.60;99.90;;;;;;5119752;28;20223;-49
2022/09/25 08:43:40;;;;;;;17.53;15.77;;;15.50;99.90;;;;;;5116237;28;20223;-49
2022/09/25 08:49:04;;;;;;;17.97;16.17;;;15.30;99.90;;;;;;5112594;28;20258;-49
2022/09/25 08:51:34;;;;;;;16.53;14.93;;;15.10;99.90;;;;;;5112423;27;20183;-49
2022/09/25 08:54:03;;;;;;;17.10;15.30;;;15.10;99.90;;;;;;5109110;28;20199;-49
2022/09/25 08:56:31;;;;;;;16.73;15.03;;;15.10;99.90;;;;;;5110551;28;20203;-49
2022/09/25 08:59:06;;;;;;;17.90;15.83;;;15.10;99.90;;;;;;5102691;28;20281;-48
2022/09/25 09:01:43;;;;;;;17.63;15.57;;;15.10;99.90;;;;;;5112105;28;20256;-49
2022/09/25 09:04:19;;;;;;;16.93;14.47;;;15.00;99.90;;;;;;5102686;28;20196;-48
2022/09/25 09:06:52;;;;;;;15.43;13.83;;;14.80;99.90;;;;;;5110450;28;20235;-48
2022/09/25 09:09:26;;;;;;;16.87;14.63;;;14.70;99.90;;;;;;5109443;28;20220;-49
2022/09/25 09:12:01;;;;;;;18.53;14.73;;;14.80;99.90;;;;;;5099078;28;20337;-48
2022/09/25 09:14:35;;;;;;;16.30;14.33;;;14.90;99.90;;;;;;5099088;28;20211;-48
2022/09/25 09:17:08;;;;;;;15.10;13.37;;;15.00;99.90;;;;;;5106316;28;20200;-49
2022/09/25 09:19:37;;;;;;;15.07;13.50;;;15.20;99.90;;;;;;5105918;28;20231;-48
2022/09/25 09:22:09;;;;;;;15.23;13.63;;;15.30;99.90;;;;;;5103257;28;20302;-48
2022/09/25 09:24:50;;;;;;;14.70;13.20;;;15.40;99.90;;;;;;5110195;28;20196;-49
2022/09/25 09:27:28;;;;;;;14.73;13.23;;;15.50;99.90;;;;;;5109637;28;20211;-48
2022/09/25 09:30:09;;;;;;;14.70;13.10;;;15.50;99.90;;;;;;5105034;28;20224;-49
2022/09/25 09:32:48;;;;;;;23.00;13.73;;;15.30;99.90;;;;;;5111320;28;20203;-49
2022/09/25 09:35:26;;;;;;;14.23;12.20;;;15.40;99.90;;;;;;5116151;28;20203;-48
2022/09/25 09:38:04;;;;;;;11.57;10.57;;;15.50;99.90;;;;;;5116205;28;20641;-49
2022/09/25 09:40:51;;;;;;;13.10;11.70;;;15.50;99.90;;;;;;5116247;28;20291;-48
2022/09/25 09:43:36;;;;;;;13.43;11.50;;;15.60;99.90;;;;;;5107077;27;20272;-49
2022/09/25 09:46:20;;;;;;;10.33;9.33;;;15.90;99.90;;;;;;5111477;28;20554;-48
2022/09/25 09:49:05;;;;;;;14.07;12.20;;;16.20;99.90;;;;;;5112969;28;20328;-49
2022/09/25 09:51:37;;;;;;;12.63;11.30;;;16.40;99.90;;;;;;5116054;28;20199;-48
2022/09/25 09:54:10;;;;;;;14.17;11.70;;;16.20;99.90;;;;;;5115717;28;20207;-48
2022/09/25 09:56:40;;;;;;;14.97;11.93;;;16.40;99.90;;;;;;5110801;28;20196;-49
2022/09/25 09:59:16;;;;;;;12.83;11.53;;;16.60;99.90;;;;;;5116061;28;20260;-49
2022/09/25 10:01:50;;;;;;;13.93;12.07;;;17.00;99.90;;;;;;5111740;27;20224;-49
2022/09/25 10:04:19;;;;;;;10.93;9.93;;;17.30;99.90;;;;;;5104191;28;20192;-49
2022/09/25 10:06:51;;;;;;;10.20;9.20;;;17.80;99.90;;;;;;5108129;28;20204;-49
2022/09/25 10:09:18;;;;;;;10.97;9.97;;;18.40;99.90;;;;;;5115212;28;20352;-50
2022/09/25 10:11:51;;;;;;;9.90;9.10;;;18.70;99.90;;;;;;5115367;28;20188;-49
2022/09/25 10:14:21;;;;;;;10.93;9.80;;;18.50;99.90;;;;;;5108747;28;20227;-49
2022/09/25 10:16:52;;;;;;;9.27;8.47;;;18.40;99.90;;;;;;5107629;28;20736;-49
2022/09/25 10:19:21;;;;;;;8.70;8.00;;;18.00;99.90;;;;;;5103310;28;20231;-49
2022/09/25 10:21:53;;;;;;;8.93;8.23;;;17.80;99.90;;;;;;5115047;28;20226;-49
2022/09/25 10:24:48;;;;;;;9.77;7.83;;;17.40;99.90;;;;;;5104031;28;20284;-48
2022/09/25 10:27:28;;;;;;;11.07;9.90;;;17.20;99.90;;;;;;5101287;28;20250;-48
2022/09/25 10:30:03;;;;;;;9.20;8.30;;;17.90;99.90;;;;;;5110642;28;20224;-49
2022/09/25 10:32:33;;;;;;;10.13;8.70;;;18.20;99.90;;;;;;5103491;28;20196;-49
2022/09/25 10:35:01;;;;;;;9.57;8.77;;;18.40;99.90;;;;;;5108176;28;20253;-49
2022/09/25 10:37:34;;;;;;;9.90;8.97;;;18.60;99.90;;;;;;5100815;28;20224;-50
2022/09/25 10:40:04;;;;;;;9.20;8.50;;;18.70;99.90;;;;;;5105972;28;20723;-50
2022/09/25 10:42:38;;;;;;;10.03;9.13;;;18.90;99.90;;;;;;5114324;28;20219;-50
2022/09/25 10:45:33;;;;;;;9.03;8.00;;;19.10;99.90;;;;;;5110102;28;20199;-50
2022/09/25 10:51:06;;;;;;;8.70;8.10;;;19.50;99.90;;;;;;5103695;28;20582;-49
2022/09/25 10:53:33;;;;;;;7.87;7.37;;;19.40;99.90;;;;;;5105594;28;20203;-50
2022/09/25 10:56:04;;;;;;;7.27;6.67;;;19.30;99.90;;;;;;5109446;28;20195;-50
2022/09/25 10:58:37;;;;;;;6.43;6.00;;;19.00;99.90;;;;;;5114062;28;20211;-49
2022/09/25 11:01:07;;;;;;;6.10;5.70;;;18.80;99.90;;;;;;5106570;27;20192;-49
2022/09/25 11:03:40;;;;;;;7.80;7.10;;;18.70;99.90;;;;;;5111771;28;20211;-50
2022/09/25 11:06:18;;;;;;;7.20;6.67;;;18.40;99.90;;;;;;5103496;28;20261;-49
2022/09/25 11:08:45;;;;;;;6.93;6.33;;;18.20;99.90;;;;;;5114005;28;20226;-49
2022/09/25 11:11:15;;;;;;;7.07;6.23;;;18.20;99.90;;;;;;5112915;28;20196;-50
2022/09/25 11:13:47;;;;;;;6.70;6.30;;;18.20;99.90;;;;;;5103678;28;20204;-50
2022/09/25 11:16:14;;;;;;;6.07;5.60;;;18.20;99.90;;;;;;5110646;28;20299;-49
2022/09/25 11:18:45;;;;;;;5.80;5.30;;;18.40;99.90;;;;;;5098883;28;20595;-49
2022/09/25 11:21:22;;;;;;;5.53;5.17;;;18.70;99.90;;;;;;5117437;27;20191;-51
2022/09/25 11:24:06;;;;;;;6.17;5.57;;;18.80;99.90;;;;;;5109516;27;20665;-50
2022/09/25 11:26:38;;;;;;;6.27;5.83;;;18.80;99.90;;;;;;5110835;27;20227;-50
2022/09/25 11:29:12;;;;;;;5.93;5.40;;;18.80;99.90;;;;;;5109932;28;20298;-49
2022/09/25 11:31:43;;;;;;;6.83;5.93;;;18.90;99.90;;;;;;5103849;28;20223;-49
2022/09/25 11:34:23;;;;;;;6.17;5.77;;;18.50;99.90;;;;;;5105129;28;20207;-52
2022/09/25 11:37:02;;;;;;;7.47;6.87;;;18.40;99.90;;;;;;5112347;28;20294;-50
2022/09/25 11:42:24;;;;;;;7.90;7.30;;;18.10;99.90;;;;;;5086825;28;20211;-48
2022/09/25 11:44:58;;;;;;;8.30;7.57;;;17.90;99.90;;;;;;5110699;28;20215;-49
2022/09/25 11:47:29;;;;;;;7.00;6.50;;;17.70;99.90;;;;;;5112781;28;20199;-49
2022/09/25 11:50:00;;;;;;;9.17;8.37;;;17.70;99.90;;;;;;5097252;28;20227;-48
2022/09/25 11:52:39;;;;;;;7.50;7.00;;;17.60;99.90;;;;;;5106450;28;20733;-49
2022/09/25 11:55:52;;;;;;;8.97;8.17;;;17.40;99.90;;;;;;5101377;28;20633;-49
2022/09/25 11:58:38;;;;;;;7.67;7.17;;;17.30;99.90;;;;;;5099236;28;20227;-49
2022/09/25 12:01:19;;;;;;;7.97;7.37;;;17.30;99.90;;;;;;5100179;28;20199;-48
2022/09/25 12:04:34;;;;;;;9.43;8.60;;;17.30;99.90;;;;;;5101342;28;20246;-49
2022/09/25 12:07:17;;;;;;;9.70;8.90;;;17.10;99.90;;;;;;5065887;28;20259;-48
2022/09/25 12:10:02;;;;;;;9.17;8.37;;;17.00;99.90;;;;;;5102944;28;20228;-49
2022/09/25 12:12:35;;;;;;;9.93;9.07;;;16.90;99.90;;;;;;5094343;28;20195;-48
2022/09/25 12:15:16;;;;;;;9.77;9.07;;;16.60;99.90;;;;;;5109199;28;20196;-48
2022/09/25 12:17:54;;;;;;;12.70;11.47;;;16.50;99.90;;;;;;5100001;28;20215;-49
2022/09/25 12:20:29;;;;;;;11.20;10.03;;;16.30;99.90;;;;;;5112549;28;20703;-49
2022/09/25 12:23:11;;;;;;;12.13;10.90;;;16.30;99.90;;;;;;5099907;28;20228;-49
2022/09/25 12:25:55;;;;;;;12.40;11.30;;;16.20;99.90;;;;;;5098560;28;20270;-48
2022/09/25 12:28:35;;;;;;;11.17;10.07;;;16.10;99.90;;;;;;5106957;28;20219;-48
2022/09/25 12:31:12;;;;;;;11.50;10.50;;;16.10;99.90;;;;;;5103953;28;20200;-49
2022/09/25 12:33:51;;;;;;;12.07;10.80;;;16.10;99.90;;;;;;5106610;28;20669;-48
2022/09/25 12:36:24;;;;;;;13.23;12.03;;;16.20;99.90;;;;;;5109000;28;20248;-48
2022/09/25 12:38:57;;;;;;;13.33;11.93;;;16.30;99.90;;;;;;5104281;28;20224;-49
2022/09/25 12:41:32;;;;;;;11.90;10.80;;;16.30;99.90;;;;;;5098451;28;20269;-49
2022/09/25 12:44:05;;;;;;;13.60;12.27;;;16.30;99.90;;;;;;5102882;28;20211;-50
2022/09/25 12:46:40;;;;;;;12.97;11.80;;;16.30;99.90;;;;;;5107635;28;20282;-50
2022/09/25 12:49:13;;;;;;;12.10;11.07;;;16.00;99.90;;;;;;5106129;28;20573;-49
2022/09/25 12:51:44;;;;;;;12.10;11.10;;;16.10;99.90;;;;;;5108415;28;20626;-50
2022/09/25 12:54:22;;;;;;;13.30;11.67;;;16.10;99.90;;;;;;5107988;28;20203;-50
2022/09/25 12:56:56;;;;;;;12.17;10.97;;;16.10;99.90;;;;;;5101405;28;20290;-50
2022/09/25 12:59:30;;;;;;;12.27;11.17;;;15.90;99.90;;;;;;5110639;28;20241;-49
2022/09/25 13:02:04;;;;;;;15.03;13.47;;;16.10;99.90;;;;;;5108087;28;20198;-51
2022/09/25 13:04:43;;;;;;;13.57;12.13;;;16.30;99.90;;;;;;5106124;28;20203;-51
2022/09/25 13:07:19;;;;;;;13.37;12.10;;;16.40;99.90;;;;;;5100700;28;20196;-50
2022/09/25 13:09:49;;;;;;;12.07;10.97;;;16.40;99.90;;;;;;5109806;28;20219;-49
2022/09/25 13:12:33;;;;;;;11.50;10.50;;;16.50;99.90;;;;;;5112195;28;20203;-51
2022/09/25 13:15:08;;;;;;;12.20;11.20;;;16.70;99.90;;;;;;5100934;28;20207;-50